METAR UND TAF INFORMATION
EDDL 211620Z 14006KT 9999 FEW020 03/M00 Q1018 NOSIG

 FLUGHAFENKARTE

 RUNWAY INFORMATION
Runway 05L Runway length 8858 ft Runway width 148 ft
Runway elevation 116 ft Runway displaced threshold 984 ft Runway heading 53
Runway 23R Runway length 8858 ft Runway width 148 ft
Runway elevation 124 ft Runway displaced threshold 984 ft Runway heading 233
Runway 05R Runway length 9842 ft Runway width 148 ft
Runway elevation 121 ft Runway displaced threshold 984 ft Runway heading 53
Runway 23L Runway length 9842 ft Runway width 148 ft
Runway elevation 138 ft Runway displaced threshold 984 ft Runway heading 233

 AIRPORT FREQUENCIES
Type ACC Name LANGEN RAD Frequency 128.55 MHZ
Type APP Name DIR Frequency 128.65 MHZ
Type ATIS Name ATIS Frequency 123.775 MHZ
Type CLD Name CLNC DEL Frequency 121.775 MHZ
Type GND Name GND Frequency 121.9 MHZ
Type INFO Name LANGEN INF Frequency 129.875 MHZ
Type MISC Name DE ICING Frequency 135.225 MHZ
Type TWR Name TWR Frequency 118.3 MHZ

 AIRPORT NEAR NAVIGATION AIDS
Type VOR-DME Name Dusseldorf Frequency 115150 KHZ



Version 5.0.0: Changelog

Impressum | Datenschutzerklärung

Virtual Airlines Manager